Overseas Skopelos — V7SU9 — position and weather

sailwx.info

Track history (hours):
 
Tides and Currents Weather Stations Pressure Air Temp Water Temp Dewpoint Dewpoint Depression Visibility Wind Speed Wind Dir Waves Ship Positions

Overseas Skopelos

Last reported at 2014-Sep-13 12:18 UTC. Time now 2014-Oct-02 02:34 UTC.
Position N 30°03' W 090°30'.
Warning: this ship's position is 18 days out of date.

Length 183 m; draft 8.3 m.

Type: Tanker. MMSI: 538003726.

Date/timePositionNaut miles runAvg speedWind from/ knotsBaromVisibWave heightAir tempDewpointWater temp
2014-Sep-13 12:18N 30°03' W 090°30'5 6.4
2014-Sep-13 11:33N 30°03' W 090°36'0 0.0
2014-Sep-13 10:32N 30°03' W 090°36'0 0.0
2014-Sep-13 09:32N 30°03' W 090°36'0 0.0
2014-Sep-13 08:32N 30°03' W 090°36'0 0.0
2014-Sep-13 07:32N 30°03' W 090°36'0 0.0
2014-Sep-13 06:32N 30°03' W 090°36'0 0.0
2014-Sep-13 05:32N 30°03' W 090°36'0 0.0
2014-Sep-13 04:32N 30°03' W 090°36'0 0.0
2014-Sep-13 03:32N 30°03' W 090°36'0 0.0
2014-Sep-13 02:32N 30°03' W 090°36'0 0.0
2014-Sep-13 01:32N 30°03' W 090°36'0 0.0
2014-Sep-13 00:32N 30°03' W 090°36'0 0.0
2014-Sep-12 23:32N 30°03' W 090°36'0 0.0
2014-Sep-12 22:32N 30°03' W 090°36'0 0.0
2014-Sep-12 21:32N 30°03' W 090°36'0 0.0
2014-Sep-12 20:32N 30°03' W 090°36'0 0.0
2014-Sep-12 19:32N 30°03' W 090°36'0 0.0
2014-Sep-12 17:32N 30°03' W 090°36'0 0.0
2014-Sep-12 16:32N 30°03' W 090°36'0 0.0
2014-Sep-12 15:32N 30°03' W 090°36'0 0.0
2014-Sep-12 14:32N 30°03' W 090°36'0 0.0
2014-Sep-12 13:32N 30°03' W 090°36'0 0.0
2014-Sep-12 12:32N 30°03' W 090°36'0 0.0
2014-Sep-12 11:29N 30°03' W 090°36'0 0.0
2014-Sep-12 10:32N 30°03' W 090°36'0 0.0
2014-Sep-12 09:32N 30°03' W 090°36'0 0.0
2014-Sep-12 08:29N 30°03' W 090°36'0 0.0
2014-Sep-12 07:32N 30°03' W 090°36'0 0.0
2014-Sep-12 06:32N 30°03' W 090°36'0 0.0
2014-Sep-12 05:32N 30°03' W 090°36'0 0.0
2014-Sep-12 04:33N 30°03' W 090°36'3 2.7
2014-Sep-12 03:33N 30°03' W 090°33'8 8.4
2014-Sep-12 02:33N 29°59' W 090°24'6 5.6
2014-Sep-12 01:33N 29°57' W 090°18'2 2.0
2014-Sep-12 00:30N 29°58' W 090°16'0 0.0
2014-Sep-11 23:24N 29°58' W 090°16'0 0.0
2014-Sep-11 22:30N 29°58' W 090°16'0 0.0
2014-Sep-11 12:30N 29°58' W 090°16'0 0.0
2014-Sep-11 11:30N 29°58' W 090°16'0 0.0
2014-Sep-11 10:24N 29°58' W 090°16'0 0.0
2014-Sep-11 09:30N 29°58' W 090°16'0 0.0
2014-Sep-11 08:12N 29°58' W 090°16'0 0.0
2014-Sep-11 07:30N 29°58' W 090°16'0 0.0
2014-Sep-11 06:30N 29°58' W 090°16'0 0.0
2014-Sep-11 05:30N 29°58' W 090°16'0 0.0
2014-Sep-11 04:18N 29°58' W 090°16'0 0.0
2014-Sep-11 03:18N 29°58' W 090°16'0 0.0
2014-Sep-11 02:12N 29°58' W 090°16'0 0.0
2014-Sep-11 00:30N 29°58' W 090°16'0 0.0
2014-Sep-10 12:06N 29°58' W 090°16'0 0.0
2014-Sep-10 11:18N 29°58' W 090°16'0 0.0
2014-Sep-10 10:30N 29°58' W 090°16'0 0.0
2014-Sep-10 09:30N 29°58' W 090°16'0 0.0
2014-Sep-10 08:18N 29°58' W 090°16'0 0.0
2014-Sep-10 07:21N 29°58' W 090°16'0 0.0
2014-Sep-10 06:12N 29°58' W 090°16'0 0.0
2014-Sep-10 05:30N 29°58' W 090°16'0 0.0
2014-Sep-10 00:30N 29°58' W 090°16'0 0.0
2014-Sep-09 23:30N 29°58' W 090°16'0 0.0
2014-Sep-09 11:17N 29°58' W 090°16'0 0.0
2014-Sep-09 10:11N 29°58' W 090°16'0 0.0
2014-Sep-09 09:29N 29°58' W 090°16'0 0.0
2014-Sep-09 08:32N 29°58' W 090°16'0 0.0
2014-Sep-09 07:23N 29°58' W 090°16'0 0.0
2014-Sep-09 03:05N 29°58' W 090°16'0 0.0
2014-Sep-09 02:14N 29°58' W 090°16'0 0.0
2014-Sep-09 01:23N 29°58' W 090°16'0 0.0
2014-Sep-09 00:23N 29°58' W 090°16'0 0.0
2014-Sep-08 23:29N 29°58' W 090°16'0 0.0
2014-Sep-08 22:29N 29°58' W 090°16'0 0.0
2014-Sep-08 10:29N 29°58' W 090°16'0 0.0
2014-Sep-08 09:11N 29°58' W 090°16'0 0.0
2014-Sep-08 08:23N 29°58' W 090°16'0 0.0
2014-Sep-08 04:26N 29°58' W 090°16'0 0.0
2014-Sep-08 03:29N 29°58' W 090°16'0 0.0
2014-Sep-08 00:22N 29°58' W 090°16'0 0.0
2014-Sep-07 22:28N 29°58' W 090°16'0 0.0
2014-Sep-07 21:28N 29°58' W 090°16'0 0.0
2014-Sep-07 20:17N 29°58' W 090°16'0 0.0
2014-Sep-07 19:28N 29°58' W 090°16'0 0.0
2014-Sep-07 18:22N 29°58' W 090°16'0 0.0
2014-Sep-07 17:28N 29°58' W 090°16'0 0.0
2014-Sep-07 16:22N 29°58' W 090°16'0 0.0
2014-Sep-07 11:28N 29°58' W 090°16'0 0.0
2014-Sep-07 10:31N 29°58' W 090°16'0 0.0
2014-Sep-07 09:28N 29°58' W 090°16'0 0.0
2014-Sep-07 08:28N 29°58' W 090°16'0 0.0
2014-Sep-07 07:28N 29°58' W 090°16'0 0.0
2014-Sep-07 06:28N 29°58' W 090°16'0 0.0
2014-Sep-07 05:28N 29°58' W 090°16'0 0.0
2014-Sep-07 04:28N 29°58' W 090°16'0 0.0
2014-Sep-07 03:22N 29°58' W 090°16'0 0.0
2014-Sep-07 02:22N 29°58' W 090°16'0 0.0
2014-Sep-07 00:28N 29°58' W 090°16'3 3.6
2014-Sep-06 23:33N 29°56' W 090°13'  
Track history (hours):
 
Tides and Currents Weather Stations Pressure Air Temp Water Temp Dewpoint Dewpoint Depression Visibility Wind Speed Wind Dir Waves Ship Positions

Overseas Skopelos

Last reported at 2014-Sep-13 12:18 UTC. Time now 2014-Oct-02 02:34 UTC.
Position N 30°03' W 090°30'.
Warning: this ship's position is 18 days out of date.

Length 183 m; draft 8.3 m.

Type: Tanker. MMSI: 538003726.

Date/timePositionNaut miles runAvg speedWind from/ knotsBaromVisibWave heightAir tempDewpointWater temp
2014-Sep-13 12:18N 30°03' W 090°30'5 6.4
2014-Sep-13 11:33N 30°03' W 090°36'0 0.0
2014-Sep-13 10:32N 30°03' W 090°36'0 0.0
2014-Sep-13 09:32N 30°03' W 090°36'0 0.0
2014-Sep-13 08:32N 30°03' W 090°36'0 0.0
2014-Sep-13 07:32N 30°03' W 090°36'0 0.0
2014-Sep-13 06:32N 30°03' W 090°36'0 0.0
2014-Sep-13 05:32N 30°03' W 090°36'0 0.0
2014-Sep-13 04:32N 30°03' W 090°36'0 0.0
2014-Sep-13 03:32N 30°03' W 090°36'0 0.0
2014-Sep-13 02:32N 30°03' W 090°36'0 0.0
2014-Sep-13 01:32N 30°03' W 090°36'0 0.0
2014-Sep-13 00:32N 30°03' W 090°36'0 0.0
2014-Sep-12 23:32N 30°03' W 090°36'0 0.0
2014-Sep-12 22:32N 30°03' W 090°36'0 0.0
2014-Sep-12 21:32N 30°03' W 090°36'0 0.0
2014-Sep-12 20:32N 30°03' W 090°36'0 0.0
2014-Sep-12 19:32N 30°03' W 090°36'0 0.0
2014-Sep-12 17:32N 30°03' W 090°36'0 0.0
2014-Sep-12 16:32N 30°03' W 090°36'0 0.0
2014-Sep-12 15:32N 30°03' W 090°36'0 0.0
2014-Sep-12 14:32N 30°03' W 090°36'0 0.0
2014-Sep-12 13:32N 30°03' W 090°36'0 0.0
2014-Sep-12 12:32N 30°03' W 090°36'0 0.0
2014-Sep-12 11:29N 30°03' W 090°36'0 0.0
2014-Sep-12 10:32N 30°03' W 090°36'0 0.0
2014-Sep-12 09:32N 30°03' W 090°36'0 0.0
2014-Sep-12 08:29N 30°03' W 090°36'0 0.0
2014-Sep-12 07:32N 30°03' W 090°36'0 0.0
2014-Sep-12 06:32N 30°03' W 090°36'0 0.0
2014-Sep-12 05:32N 30°03' W 090°36'0 0.0
2014-Sep-12 04:33N 30°03' W 090°36'3 2.7
2014-Sep-12 03:33N 30°03' W 090°33'8 8.4
2014-Sep-12 02:33N 29°59' W 090°24'6 5.6
2014-Sep-12 01:33N 29°57' W 090°18'2 2.0
2014-Sep-12 00:30N 29°58' W 090°16'0 0.0
2014-Sep-11 23:24N 29°58' W 090°16'0 0.0
2014-Sep-11 22:30N 29°58' W 090°16'0 0.0
2014-Sep-11 12:30N 29°58' W 090°16'0 0.0
2014-Sep-11 11:30N 29°58' W 090°16'0 0.0
2014-Sep-11 10:24N 29°58' W 090°16'0 0.0
2014-Sep-11 09:30N 29°58' W 090°16'0 0.0
2014-Sep-11 08:12N 29°58' W 090°16'0 0.0
2014-Sep-11 07:30N 29°58' W 090°16'0 0.0
2014-Sep-11 06:30N 29°58' W 090°16'0 0.0
2014-Sep-11 05:30N 29°58' W 090°16'0 0.0
2014-Sep-11 04:18N 29°58' W 090°16'0 0.0
2014-Sep-11 03:18N 29°58' W 090°16'0 0.0
2014-Sep-11 02:12N 29°58' W 090°16'0 0.0
2014-Sep-11 00:30N 29°58' W 090°16'0 0.0
2014-Sep-10 12:06N 29°58' W 090°16'0 0.0
2014-Sep-10 11:18N 29°58' W 090°16'0 0.0
2014-Sep-10 10:30N 29°58' W 090°16'0 0.0
2014-Sep-10 09:30N 29°58' W 090°16'0 0.0
2014-Sep-10 08:18N 29°58' W 090°16'0 0.0
2014-Sep-10 07:21N 29°58' W 090°16'0 0.0
2014-Sep-10 06:12N 29°58' W 090°16'0 0.0
2014-Sep-10 05:30N 29°58' W 090°16'0 0.0
2014-Sep-10 00:30N 29°58' W 090°16'0 0.0
2014-Sep-09 23:30N 29°58' W 090°16'0 0.0
2014-Sep-09 11:17N 29°58' W 090°16'0 0.0
2014-Sep-09 10:11N 29°58' W 090°16'0 0.0
2014-Sep-09 09:29N 29°58' W 090°16'0 0.0
2014-Sep-09 08:32N 29°58' W 090°16'0 0.0
2014-Sep-09 07:23N 29°58' W 090°16'0 0.0
2014-Sep-09 03:05N 29°58' W 090°16'0 0.0
2014-Sep-09 02:14N 29°58' W 090°16'0 0.0
2014-Sep-09 01:23N 29°58' W 090°16'0 0.0
2014-Sep-09 00:23N 29°58' W 090°16'0 0.0
2014-Sep-08 23:29N 29°58' W 090°16'0 0.0
2014-Sep-08 22:29N 29°58' W 090°16'0 0.0
2014-Sep-08 10:29N 29°58' W 090°16'0 0.0
2014-Sep-08 09:11N 29°58' W 090°16'0 0.0
2014-Sep-08 08:23N 29°58' W 090°16'0 0.0
2014-Sep-08 04:26N 29°58' W 090°16'0 0.0
2014-Sep-08 03:29N 29°58' W 090°16'0 0.0
2014-Sep-08 00:22N 29°58' W 090°16'0 0.0
2014-Sep-07 22:28N 29°58' W 090°16'0 0.0
2014-Sep-07 21:28N 29°58' W 090°16'0 0.0
2014-Sep-07 20:17N 29°58' W 090°16'0 0.0
2014-Sep-07 19:28N 29°58' W 090°16'0 0.0
2014-Sep-07 18:22N 29°58' W 090°16'0 0.0
2014-Sep-07 17:28N 29°58' W 090°16'0 0.0
2014-Sep-07 16:22N 29°58' W 090°16'0 0.0
2014-Sep-07 11:28N 29°58' W 090°16'0 0.0
2014-Sep-07 10:31N 29°58' W 090°16'0 0.0
2014-Sep-07 09:28N 29°58' W 090°16'0 0.0
2014-Sep-07 08:28N 29°58' W 090°16'0 0.0
2014-Sep-07 07:28N 29°58' W 090°16'0 0.0
2014-Sep-07 06:28N 29°58' W 090°16'0 0.0
2014-Sep-07 05:28N 29°58' W 090°16'0 0.0
2014-Sep-07 04:28N 29°58' W 090°16'0 0.0
2014-Sep-07 03:22N 29°58' W 090°16'0 0.0
2014-Sep-07 02:22N 29°58' W 090°16'0 0.0
2014-Sep-07 00:28N 29°58' W 090°16'3 3.6
2014-Sep-06 23:33N 29°56' W 090°13'  

Dump ship's entire track history